createdAt,value
2022-12-31T00:01:00.563Z,96.57
2022-12-31T00:03:27.589Z,96.58
2022-12-31T00:05:55.763Z,96.61
2022-12-31T00:08:22.730Z,96.78
2022-12-31T00:10:49.247Z,96.63
2022-12-31T00:13:19.240Z,96.75
2022-12-31T00:15:45.841Z,96.76
2022-12-31T00:18:12.768Z,96.81
2022-12-31T00:20:42.349Z,96.74
2022-12-31T00:23:11.971Z,96.78
2022-12-31T00:25:42.225Z,96.83
2022-12-31T00:28:11.754Z,96.96
2022-12-31T00:30:40.380Z,97.02
2022-12-31T00:33:07.329Z,97.03
2022-12-31T00:35:38.487Z,97.08
2022-12-31T00:38:05.171Z,97.03
2022-12-31T00:40:32.628Z,96.92
2022-12-31T00:43:00.311Z,97.00
2022-12-31T00:45:27.720Z,96.98
2022-12-31T00:47:56.624Z,96.92
2022-12-31T00:50:23.210Z,97.08
2022-12-31T00:52:50.421Z,97.05
2022-12-31T00:55:17.487Z,97.04
2022-12-31T00:57:44.818Z,97.27
2022-12-31T01:00:13.788Z,97.12
2022-12-31T01:02:41.273Z,97.23
2022-12-31T01:05:09.136Z,97.21
2022-12-31T01:07:38.167Z,97.20
2022-12-31T01:10:05.665Z,97.19
2022-12-31T01:12:33.565Z,97.17
2022-12-31T01:15:00.106Z,97.09
2022-12-31T01:17:26.989Z,97.09
2022-12-31T01:20:00.537Z,97.04
2022-12-31T01:22:27.081Z,97.19
2022-12-31T01:24:53.694Z,97.14
2022-12-31T01:27:20.266Z,97.14
2022-12-31T01:29:46.799Z,97.16
2022-12-31T01:32:13.397Z,97.08
2022-12-31T01:34:40.512Z,97.22
2022-12-31T01:37:07.026Z,97.18
2022-12-31T01:39:36.772Z,97.11
2022-12-31T01:42:06.137Z,97.25
2022-12-31T01:44:34.905Z,97.11
2022-12-31T01:47:04.387Z,97.03
2022-12-31T01:49:40.868Z,97.08
2022-12-31T01:52:16.238Z,97.07
2022-12-31T01:54:47.426Z,97.25
2022-12-31T01:57:15.323Z,97.26
2022-12-31T01:59:43.425Z,97.22
2022-12-31T02:02:10.115Z,97.27
2022-12-31T02:04:37.813Z,97.33
2022-12-31T02:07:08.144Z,97.24
2022-12-31T02:09:39.045Z,97.32
2022-12-31T02:12:07.579Z,97.26
2022-12-31T02:14:41.856Z,97.29
2022-12-31T02:17:36.742Z,97.23
2022-12-31T02:20:16.050Z,97.15
2022-12-31T02:23:09.023Z,97.28
2022-12-31T02:26:09.873Z,97.28
2022-12-31T02:28:56.307Z,97.29
2022-12-31T02:31:39.745Z,97.26
2022-12-31T02:34:27.369Z,97.36
2022-12-31T02:36:57.204Z,97.33
2022-12-31T02:39:23.956Z,97.41
2022-12-31T02:41:51.600Z,97.39
2022-12-31T02:44:24.390Z,97.48
2022-12-31T02:47:09.518Z,97.50
2022-12-31T02:49:55.471Z,97.45
2022-12-31T02:52:46.729Z,97.49
2022-12-31T02:55:16.492Z,97.53
2022-12-31T02:58:08.187Z,97.52
2022-12-31T03:01:00.106Z,97.47
2022-12-31T03:03:28.158Z,97.13
2022-12-31T03:05:55.945Z,97.53
2022-12-31T03:08:26.627Z,97.57
2022-12-31T03:10:57.051Z,97.41
2022-12-31T03:13:24.851Z,97.24
2022-12-31T03:15:51.973Z,97.55
2022-12-31T03:18:39.615Z,97.51
2022-12-31T03:21:36.331Z,97.30
2022-12-31T03:24:21.741Z,97.52
2022-12-31T03:26:48.410Z,97.49
2022-12-31T03:29:16.303Z,97.42
2022-12-31T03:31:44.924Z,97.54
2022-12-31T03:34:12.169Z,97.40
2022-12-31T03:36:40.274Z,97.50
2022-12-31T03:39:09.343Z,97.46
2022-12-31T03:41:36.647Z,97.50
2022-12-31T03:44:03.191Z,97.40
2022-12-31T03:46:30.739Z,97.41
2022-12-31T03:48:58.650Z,97.41
2022-12-31T03:51:25.181Z,97.33
2022-12-31T03:53:52.628Z,97.44
2022-12-31T03:56:20.045Z,97.35
2022-12-31T03:58:46.900Z,97.32
2022-12-31T04:01:14.052Z,97.50
2022-12-31T04:03:41.541Z,97.44
2022-12-31T04:06:09.107Z,97.42
2022-12-31T04:08:36.050Z,97.46
2022-12-31T04:11:03.019Z,97.51
2022-12-31T04:13:30.126Z,97.47
2022-12-31T04:15:56.885Z,97.42
2022-12-31T04:18:24.145Z,97.61
2022-12-31T04:20:50.795Z,97.89
2022-12-31T04:23:20.804Z,97.44
2022-12-31T04:25:50.414Z,97.58
2022-12-31T04:28:17.330Z,97.49
2022-12-31T04:30:44.369Z,97.68
2022-12-31T04:33:10.866Z,97.65
2022-12-31T04:35:37.569Z,97.55
2022-12-31T04:38:04.968Z,97.63
2022-12-31T04:40:31.531Z,97.50
2022-12-31T04:42:58.332Z,97.76
2022-12-31T04:45:24.937Z,97.79
2022-12-31T04:47:51.811Z,97.72
2022-12-31T04:50:18.823Z,97.76
2022-12-31T04:52:45.822Z,97.92
2022-12-31T04:55:13.041Z,97.85
2022-12-31T04:57:41.207Z,97.91
2022-12-31T05:00:10.141Z,97.92
2022-12-31T05:02:39.184Z,97.92
2022-12-31T05:05:10.274Z,97.92
2022-12-31T05:07:37.231Z,97.91
2022-12-31T05:10:06.014Z,98.03
2022-12-31T05:12:32.839Z,98.06
2022-12-31T05:14:59.423Z,98.05
2022-12-31T05:17:27.203Z,98.07
2022-12-31T05:19:57.519Z,98.21
2022-12-31T05:22:30.048Z,98.17
2022-12-31T05:24:58.174Z,98.00
2022-12-31T05:27:24.937Z,98.14
2022-12-31T05:29:52.832Z,98.33
2022-12-31T05:32:19.480Z,98.06
2022-12-31T05:34:46.001Z,98.12
2022-12-31T05:37:15.583Z,98.14
2022-12-31T05:39:42.545Z,98.27
2022-12-31T05:42:09.194Z,98.17
2022-12-31T05:44:36.275Z,98.40
2022-12-31T05:47:03.220Z,98.28
2022-12-31T05:49:31.761Z,98.32
2022-12-31T05:52:00.736Z,98.32
2022-12-31T05:54:28.080Z,98.45
2022-12-31T05:56:54.703Z,98.51
2022-12-31T05:59:21.391Z,98.35
2022-12-31T06:01:52.830Z,98.47
2022-12-31T06:04:20.622Z,98.45
2022-12-31T06:06:48.573Z,98.53
2022-12-31T06:09:18.084Z,98.35
2022-12-31T06:11:45.962Z,98.54
2022-12-31T06:14:13.386Z,98.60
2022-12-31T06:16:40.899Z,98.57
2022-12-31T06:19:07.887Z,98.63
2022-12-31T06:21:34.884Z,98.54
2022-12-31T06:24:02.035Z,98.59
2022-12-31T06:26:29.020Z,98.79
2022-12-31T06:28:55.617Z,98.70
2022-12-31T06:31:22.571Z,98.67
2022-12-31T06:33:50.314Z,98.76
2022-12-31T06:36:19.132Z,98.83
2022-12-31T06:38:46.532Z,98.71
2022-12-31T06:41:14.657Z,98.75
2022-12-31T06:43:41.930Z,98.73
2022-12-31T06:46:11.637Z,98.87
2022-12-31T06:48:44.880Z,98.75
2022-12-31T06:51:17.934Z,98.75
2022-12-31T06:53:47.042Z,98.73
2022-12-31T06:56:26.478Z,98.71
2022-12-31T06:58:57.302Z,98.80
2022-12-31T07:01:41.459Z,98.74
2022-12-31T07:04:14.120Z,98.75
2022-12-31T07:06:48.674Z,98.80
2022-12-31T07:09:26.499Z,98.87
2022-12-31T07:12:04.160Z,98.86
2022-12-31T07:14:53.314Z,98.83
2022-12-31T07:17:24.595Z,98.77
2022-12-31T07:20:07.368Z,98.83
2022-12-31T07:22:34.764Z,98.85
2022-12-31T07:25:02.185Z,98.80
2022-12-31T07:27:50.377Z,98.80
2022-12-31T07:30:27.945Z,98.73
2022-12-31T07:33:16.138Z,98.76
2022-12-31T07:35:57.231Z,98.64
2022-12-31T07:38:47.843Z,98.79
2022-12-31T07:41:33.532Z,98.57
2022-12-31T07:44:14.978Z,98.48
2022-12-31T07:46:57.958Z,98.58
2022-12-31T07:49:26.985Z,98.63
2022-12-31T07:51:54.349Z,98.55
2022-12-31T07:54:21.757Z,98.55
2022-12-31T07:56:49.563Z,98.54
2022-12-31T07:59:24.449Z,98.56
2022-12-31T08:01:54.660Z,98.52
2022-12-31T08:04:42.941Z,98.58
2022-12-31T08:07:28.778Z,98.67
2022-12-31T08:10:18.013Z,98.60
2022-12-31T08:12:47.780Z,98.75
2022-12-31T08:15:19.335Z,98.39
2022-12-31T08:17:48.135Z,98.61
2022-12-31T08:20:16.754Z,98.36
2022-12-31T08:22:47.251Z,98.40
2022-12-31T08:25:14.574Z,98.34
2022-12-31T08:27:55.591Z,98.15
2022-12-31T08:30:29.849Z,98.26
2022-12-31T08:33:18.362Z,98.25
2022-12-31T08:36:16.579Z,98.18
2022-12-31T08:39:18.525Z,98.20
2022-12-31T08:41:49.833Z,98.22
2022-12-31T08:44:55.895Z,98.09
2022-12-31T08:47:22.711Z,98.14
2022-12-31T08:49:50.688Z,98.00
2022-12-31T08:52:21.809Z,98.03
2022-12-31T08:54:50.332Z,98.04
2022-12-31T08:57:25.730Z,98.01
2022-12-31T09:00:05.192Z,97.92
2022-12-31T09:02:39.351Z,97.95
2022-12-31T09:05:17.766Z,97.99
2022-12-31T09:08:26.747Z,98.00
2022-12-31T09:10:56.483Z,97.85
2022-12-31T09:13:39.583Z,97.78
2022-12-31T09:16:39.953Z,97.80
2022-12-31T09:19:10.894Z,97.68
2022-12-31T09:21:38.584Z,97.77
2022-12-31T09:24:09.459Z,97.66
2022-12-31T09:27:05.009Z,97.74
2022-12-31T09:29:34.189Z,97.61
2022-12-31T09:32:12.234Z,97.57
2022-12-31T09:35:00.536Z,97.49
2022-12-31T09:37:36.689Z,97.41
2022-12-31T09:40:23.482Z,97.35
2022-12-31T09:43:03.422Z,97.30
2022-12-31T09:45:54.405Z,97.26
2022-12-31T09:48:48.268Z,97.36
2022-12-31T09:51:36.871Z,96.93
2022-12-31T09:54:32.429Z,96.84
2022-12-31T09:57:17.291Z,96.86
2022-12-31T10:00:13.141Z,96.60
2022-12-31T10:02:48.506Z,96.60
2022-12-31T10:05:46.251Z,96.42
2022-12-31T10:09:02.471Z,96.32
2022-12-31T10:11:56.693Z,95.90
2022-12-31T10:14:55.612Z,95.78
2022-12-31T10:17:22.167Z,95.59
2022-12-31T10:20:05.916Z,95.51
2022-12-31T10:23:11.344Z,94.99
2022-12-31T10:26:02.639Z,94.81
2022-12-31T10:28:35.917Z,94.66
2022-12-31T10:31:15.778Z,94.67
2022-12-31T10:33:45.091Z,94.61
2022-12-31T10:36:30.614Z,94.38
2022-12-31T10:39:24.639Z,94.47
2022-12-31T10:42:10.040Z,94.37
2022-12-31T10:44:58.118Z,94.31
2022-12-31T10:48:00.520Z,94.59
2022-12-31T10:50:48.064Z,94.49
2022-12-31T10:53:46.041Z,94.53
2022-12-31T10:56:50.311Z,94.41
2022-12-31T10:59:39.213Z,94.25
2022-12-31T11:02:28.287Z,94.08
2022-12-31T11:05:30.939Z,93.80
2022-12-31T11:08:25.337Z,93.69
2022-12-31T11:11:44.948Z,93.93
2022-12-31T11:14:53.823Z,94.05
2022-12-31T11:18:17.692Z,94.44
2022-12-31T11:21:06.831Z,94.44
2022-12-31T11:23:45.121Z,94.80
2022-12-31T11:26:22.942Z,94.89
2022-12-31T11:28:54.879Z,95.19
2022-12-31T11:31:27.636Z,95.29
2022-12-31T11:34:32.915Z,95.36
2022-12-31T11:37:22.166Z,95.55
2022-12-31T11:40:01.441Z,95.60
2022-12-31T11:43:00.625Z,95.91
2022-12-31T11:46:02.299Z,95.81
2022-12-31T11:48:52.415Z,95.96
2022-12-31T11:51:51.395Z,95.67
2022-12-31T11:54:46.464Z,95.44
2022-12-31T11:57:31.348Z,94.80
2022-12-31T12:00:00.828Z,93.97
2022-12-31T12:03:02.957Z,93.46
2022-12-31T12:05:30.688Z,93.38
2022-12-31T12:07:58.170Z,93.22
2022-12-31T12:10:36.148Z,93.33
2022-12-31T12:13:13.742Z,93.15
2022-12-31T12:15:44.225Z,93.02
2022-12-31T12:18:24.419Z,92.65
2022-12-31T12:20:53.499Z,92.53
2022-12-31T12:23:26.324Z,92.54
2022-12-31T12:25:53.344Z,92.34
2022-12-31T12:28:30.436Z,92.61
2022-12-31T12:31:03.470Z,92.40
2022-12-31T12:33:42.893Z,92.67
2022-12-31T12:36:13.429Z,92.44
2022-12-31T12:38:40.426Z,92.75
2022-12-31T12:41:25.281Z,92.15
2022-12-31T12:44:06.725Z,91.97
2022-12-31T12:46:48.626Z,92.13
2022-12-31T12:49:41.644Z,91.83
2022-12-31T12:52:42.368Z,91.72
2022-12-31T12:55:35.332Z,91.62
2022-12-31T12:58:48.509Z,91.54
2022-12-31T13:01:40.838Z,91.71
2022-12-31T13:04:45.693Z,91.78
2022-12-31T13:07:31.163Z,91.94
2022-12-31T13:10:16.041Z,92.07
2022-12-31T13:13:26.022Z,91.82
2022-12-31T13:16:34.616Z,91.95
2022-12-31T13:19:10.298Z,91.71
2022-12-31T13:22:21.671Z,91.44
2022-12-31T13:25:14.288Z,91.55
2022-12-31T13:27:44.906Z,91.64
2022-12-31T13:30:21.117Z,91.95
2022-12-31T13:32:56.058Z,91.91
2022-12-31T13:35:33.354Z,92.07
2022-12-31T13:38:23.104Z,92.44
2022-12-31T13:40:57.600Z,92.58
2022-12-31T13:43:51.281Z,92.63
2022-12-31T13:46:37.602Z,92.91
2022-12-31T13:49:14.714Z,92.92
2022-12-31T13:51:55.049Z,92.99
2022-12-31T13:54:34.817Z,93.21
2022-12-31T13:57:14.806Z,93.34
2022-12-31T13:59:48.076Z,93.38
2022-12-31T14:02:52.686Z,93.24
2022-12-31T14:05:27.137Z,93.26
2022-12-31T14:07:55.970Z,93.23
2022-12-31T14:10:46.621Z,93.31
2022-12-31T14:13:34.155Z,93.32
2022-12-31T14:16:27.444Z,93.06
2022-12-31T14:19:19.111Z,92.86
2022-12-31T14:22:04.887Z,92.39
2022-12-31T14:24:46.542Z,91.91
2022-12-31T14:27:27.520Z,91.76
2022-12-31T14:30:16.962Z,91.54
2022-12-31T14:33:07.573Z,91.37
2022-12-31T14:35:36.795Z,91.09
2022-12-31T14:38:40.434Z,91.13
2022-12-31T14:41:22.981Z,91.42
2022-12-31T14:44:14.290Z,91.21
2022-12-31T14:46:52.873Z,91.02
2022-12-31T14:49:40.540Z,90.74
2022-12-31T14:52:18.685Z,90.63
2022-12-31T14:54:48.236Z,90.56
2022-12-31T14:57:17.540Z,90.20
2022-12-31T15:00:00.797Z,90.12
2022-12-31T15:02:34.330Z,89.60
2022-12-31T15:05:17.315Z,89.72
2022-12-31T15:07:46.858Z,89.71
2022-12-31T15:10:27.029Z,89.69
2022-12-31T15:13:02.262Z,89.77
2022-12-31T15:15:37.643Z,89.62
2022-12-31T15:18:28.525Z,89.58
2022-12-31T15:21:04.772Z,89.22
2022-12-31T15:23:40.079Z,88.65
2022-12-31T15:26:27.466Z,88.30
2022-12-31T15:29:02.923Z,88.35
2022-12-31T15:31:30.413Z,88.06
2022-12-31T15:34:23.633Z,87.65
2022-12-31T15:37:00.356Z,87.41
2022-12-31T15:39:33.011Z,86.35
2022-12-31T15:42:36.635Z,85.72
2022-12-31T15:45:02.740Z,85.60
2022-12-31T15:47:45.992Z,85.05
2022-12-31T15:50:20.356Z,84.42
2022-12-31T15:52:56.642Z,84.23
2022-12-31T15:55:23.529Z,83.31
2022-12-31T15:57:50.822Z,83.31
2022-12-31T16:00:22.676Z,83.06
2022-12-31T16:02:54.545Z,82.88
2022-12-31T16:05:24.500Z,82.24
2022-12-31T16:07:56.839Z,82.38
2022-12-31T16:10:31.681Z,82.15
2022-12-31T16:13:02.779Z,82.18
2022-12-31T16:15:34.258Z,81.40
2022-12-31T16:18:04.707Z,80.81
2022-12-31T16:20:33.963Z,80.92
2022-12-31T16:23:03.530Z,81.18
2022-12-31T16:25:33.518Z,81.23
2022-12-31T16:28:04.230Z,81.04
2022-12-31T16:30:36.587Z,81.41
2022-12-31T16:33:07.391Z,80.54
2022-12-31T16:35:37.249Z,79.82
2022-12-31T16:38:12.631Z,79.86
2022-12-31T16:41:06.340Z,79.50
2022-12-31T16:43:37.340Z,79.36
2022-12-31T16:46:27.331Z,79.27
2022-12-31T16:48:57.173Z,79.05
2022-12-31T16:51:31.084Z,78.53
2022-12-31T16:53:58.628Z,78.72
2022-12-31T16:56:40.338Z,78.63
2022-12-31T16:59:24.239Z,78.48
2022-12-31T17:01:51.864Z,78.42
2022-12-31T17:04:21.321Z,78.47
2022-12-31T17:06:48.889Z,78.40
2022-12-31T17:09:33.826Z,78.24
2022-12-31T17:12:16.588Z,78.39
2022-12-31T17:14:51.275Z,78.43
2022-12-31T17:17:26.120Z,78.31
2022-12-31T17:20:01.236Z,78.12
2022-12-31T17:22:44.274Z,78.19
2022-12-31T17:25:27.307Z,77.84
2022-12-31T17:27:58.391Z,78.03
2022-12-31T17:30:27.731Z,77.27
2022-12-31T17:33:09.747Z,77.35
2022-12-31T17:35:42.271Z,77.07
2022-12-31T17:38:20.984Z,76.77
2022-12-31T17:40:52.274Z,76.39
2022-12-31T17:43:21.995Z,76.74
2022-12-31T17:45:51.893Z,76.54
2022-12-31T17:48:19.857Z,76.48
2022-12-31T17:50:47.847Z,77.25
2022-12-31T17:53:14.775Z,76.23
2022-12-31T17:55:45.640Z,76.06
2022-12-31T17:58:24.719Z,75.92
2022-12-31T18:00:58.700Z,75.96
2022-12-31T18:03:31.211Z,75.57
2022-12-31T18:05:58.354Z,74.88
2022-12-31T18:08:26.045Z,75.51
2022-12-31T18:10:56.080Z,75.72
2022-12-31T18:13:25.268Z,74.92
2022-12-31T18:15:54.899Z,74.21
2022-12-31T18:18:30.699Z,74.10
2022-12-31T18:21:01.170Z,73.27
2022-12-31T18:23:38.705Z,73.42
2022-12-31T18:26:12.964Z,73.50
2022-12-31T18:28:39.478Z,73.54
2022-12-31T18:31:06.210Z,73.70
2022-12-31T18:33:36.838Z,73.36
2022-12-31T18:36:10.792Z,73.33
2022-12-31T18:38:38.066Z,72.87
2022-12-31T18:41:05.440Z,72.91
2022-12-31T18:43:32.363Z,72.67
2022-12-31T18:46:00.286Z,71.73
2022-12-31T18:48:26.801Z,71.46
2022-12-31T18:50:53.492Z,70.86
2022-12-31T18:53:25.418Z,70.23
2022-12-31T18:55:57.012Z,70.19
2022-12-31T18:58:24.286Z,69.18
2022-12-31T19:00:52.204Z,68.79
2022-12-31T19:03:20.567Z,69.45
2022-12-31T19:05:49.867Z,68.92
2022-12-31T19:08:19.460Z,69.18
2022-12-31T19:10:47.267Z,69.28
2022-12-31T19:13:15.615Z,69.22
2022-12-31T19:15:45.780Z,68.83
2022-12-31T19:18:15.641Z,68.94
2022-12-31T19:20:44.291Z,67.22
2022-12-31T19:23:18.188Z,67.08
2022-12-31T19:25:46.936Z,66.70
2022-12-31T19:28:20.318Z,66.07
2022-12-31T19:30:46.958Z,66.18
2022-12-31T19:33:14.142Z,66.81
2022-12-31T19:35:41.950Z,66.35
2022-12-31T19:38:29.092Z,66.02
2022-12-31T19:40:56.023Z,66.63
2022-12-31T19:43:23.899Z,66.26
2022-12-31T19:45:51.660Z,66.28
2022-12-31T19:48:30.308Z,66.42
2022-12-31T19:51:06.157Z,66.44
2022-12-31T19:53:32.796Z,66.79
2022-12-31T19:56:05.321Z,66.81
2022-12-31T19:58:32.365Z,66.64
2022-12-31T20:01:02.708Z,66.45
2022-12-31T20:03:33.115Z,66.23
2022-12-31T20:06:13.051Z,66.17
2022-12-31T20:08:43.593Z,66.74
2022-12-31T20:11:17.289Z,66.87
2022-12-31T20:13:49.661Z,66.76
2022-12-31T20:16:19.284Z,66.67
2022-12-31T20:18:49.920Z,66.50
2022-12-31T20:21:25.468Z,66.12
2022-12-31T20:23:54.264Z,66.48
2022-12-31T20:26:23.367Z,66.22
2022-12-31T20:28:52.829Z,66.27
2022-12-31T20:31:23.318Z,66.24
2022-12-31T20:33:50.473Z,65.39
2022-12-31T20:36:19.711Z,65.81
2022-12-31T20:38:46.460Z,65.78
2022-12-31T20:41:17.594Z,65.91
2022-12-31T20:43:47.872Z,66.16
2022-12-31T20:46:21.144Z,65.91
2022-12-31T20:48:49.741Z,65.71
2022-12-31T20:51:17.911Z,65.91
2022-12-31T20:53:52.723Z,65.68
2022-12-31T20:56:19.742Z,65.46
2022-12-31T20:58:46.701Z,65.62
2022-12-31T21:01:22.171Z,65.33
2022-12-31T21:04:06.667Z,65.29
2022-12-31T21:06:34.955Z,65.61
2022-12-31T21:09:03.392Z,65.44
2022-12-31T21:11:48.587Z,65.50
2022-12-31T21:14:15.752Z,65.47
2022-12-31T21:16:45.040Z,65.43
2022-12-31T21:19:12.494Z,64.58
2022-12-31T21:21:39.729Z,64.69
2022-12-31T21:24:09.025Z,64.49
2022-12-31T21:26:35.676Z,64.56
2022-12-31T21:29:03.334Z,64.67
2022-12-31T21:31:30.153Z,64.71
2022-12-31T21:33:57.707Z,64.81
2022-12-31T21:36:24.605Z,65.15
2022-12-31T21:38:51.164Z,65.50
2022-12-31T21:41:36.558Z,65.61
2022-12-31T21:44:03.818Z,65.51
2022-12-31T21:46:32.273Z,66.24
2022-12-31T21:49:00.261Z,66.29
2022-12-31T21:51:27.632Z,66.07
2022-12-31T21:53:54.579Z,65.43
2022-12-31T21:56:21.844Z,65.43
2022-12-31T21:59:14.642Z,65.40
2022-12-31T22:02:01.030Z,65.29
2022-12-31T22:05:00.783Z,64.89
2022-12-31T22:07:15.378Z,64.52
2022-12-31T22:09:41.978Z,64.92
2022-12-31T22:12:08.475Z,65.01
2022-12-31T22:14:37.348Z,64.65
2022-12-31T22:17:06.862Z,64.34
2022-12-31T22:19:39.304Z,63.72
2022-12-31T22:22:20.519Z,63.87
2022-12-31T22:24:47.446Z,64.41
2022-12-31T22:27:29.578Z,64.16
2022-12-31T22:29:59.379Z,64.14
2022-12-31T22:32:26.191Z,64.28
2022-12-31T22:34:52.895Z,63.75
2022-12-31T22:37:55.142Z,63.68
2022-12-31T22:40:07.173Z,63.74
2022-12-31T22:42:33.835Z,63.79
2022-12-31T22:45:01.999Z,63.61
2022-12-31T22:47:30.620Z,63.59
2022-12-31T22:49:58.063Z,63.84
2022-12-31T22:52:24.825Z,63.86
2022-12-31T22:54:54.192Z,63.59
2022-12-31T22:57:23.116Z,63.25
2022-12-31T22:59:51.335Z,63.29
2022-12-31T23:02:18.514Z,63.62
2022-12-31T23:04:47.113Z,63.26
2022-12-31T23:07:16.383Z,63.82
2022-12-31T23:10:03.414Z,63.99
2022-12-31T23:12:30.047Z,64.05
2022-12-31T23:15:18.509Z,63.90
2022-12-31T23:18:03.772Z,64.46
2022-12-31T23:20:50.014Z,64.63
2022-12-31T23:23:17.504Z,64.57
2022-12-31T23:25:51.917Z,64.63
2022-12-31T23:28:24.010Z,64.16
2022-12-31T23:30:51.592Z,64.15
2022-12-31T23:33:20.771Z,64.13
2022-12-31T23:35:48.071Z,63.84
2022-12-31T23:38:21.426Z,63.48
2022-12-31T23:40:48.784Z,63.93
2022-12-31T23:43:21.399Z,64.17
2022-12-31T23:45:50.045Z,63.56
2022-12-31T23:48:16.900Z,63.41
2022-12-31T23:50:50.823Z,63.10
2022-12-31T23:53:19.938Z,63.08
2022-12-31T23:55:49.063Z,63.41
2022-12-31T23:58:19.160Z,63.72
